Time;durP1;ratioP1;P1;durP2;ratioP2;P2;SDS_P1;SDS_P2;PMS_P1;PMS_P2;Temp;Humidity;BMP_temperature;BMP_pressure;BME280_temperature;BME280_humidity;BME280_pressure;Samples;Min_cycle;Max_cycle;Signal;HPM_P1;HPM_P2
2024/01/14 00:00:06;;;;;;;33.97;17.87;;;;;;;-2.75;100.00;98237.00;5115314;28;20488;-74
2024/01/14 00:02:32;;;;;;;30.93;17.33;;;;;;;-2.79;100.00;98228.63;5115043;28;20934;-74
2024/01/14 00:04:59;;;;;;;30.93;16.97;;;;;;;-2.85;100.00;98218.75;5114189;28;20438;-74
2024/01/14 00:07:25;;;;;;;32.40;18.63;;;;;;;-2.91;100.00;98215.84;5114963;28;20439;-74
2024/01/14 00:09:52;;;;;;;29.80;16.43;;;;;;;-2.63;100.00;98205.53;5115229;28;20448;-74
2024/01/14 00:12:19;;;;;;;33.13;17.83;;;;;;;-2.82;100.00;98205.47;5115357;28;20431;-74
2024/01/14 00:14:45;;;;;;;34.13;18.17;;;;;;;-2.85;100.00;98204.94;5114820;28;21009;-74
2024/01/14 00:17:12;;;;;;;30.33;17.50;;;;;;;-2.93;100.00;98209.97;5114946;28;20922;-74
2024/01/14 00:19:38;;;;;;;35.40;18.37;;;;;;;-2.82;100.00;98208.06;5114816;28;20830;-74
2024/01/14 00:22:04;;;;;;;29.17;16.40;;;;;;;-2.75;100.00;98203.16;5114595;28;20447;-74
2024/01/14 00:24:31;;;;;;;30.23;17.60;;;;;;;-2.68;100.00;98196.47;5114517;28;20935;-74
2024/01/14 00:26:57;;;;;;;35.43;19.30;;;;;;;-2.62;100.00;98188.94;5115209;28;20439;-74
2024/01/14 00:29:24;;;;;;;34.40;17.57;;;;;;;-2.67;100.00;98191.13;5114867;28;20448;-74
2024/01/14 00:31:50;;;;;;;29.93;17.20;;;;;;;-2.76;100.00;98189.31;5114874;28;20427;-74
2024/01/14 00:34:17;;;;;;;30.73;17.53;;;;;;;-2.76;100.00;98191.94;5114760;28;20431;-74
2024/01/14 00:36:43;;;;;;;31.17;17.37;;;;;;;-2.67;100.00;98185.94;5114634;28;20528;-74
2024/01/14 00:39:10;;;;;;;32.90;18.07;;;;;;;-2.71;100.00;98188.94;5114508;28;20483;-74
2024/01/14 00:41:36;;;;;;;30.20;17.13;;;;;;;-2.74;100.00;98182.22;5115373;28;20450;-74
2024/01/14 00:44:03;;;;;;;30.13;17.33;;;;;;;-2.79;100.00;98165.38;5114679;28;20794;-74
2024/01/14 00:46:31;;;;;;;29.20;16.70;;;;;;;-2.78;100.00;98170.44;5114339;28;20435;-74
2024/01/14 00:48:58;;;;;;;34.73;18.63;;;;;;;-2.68;100.00;98163.47;5114551;28;20436;-74
2024/01/14 00:51:24;;;;;;;34.47;18.10;;;;;;;-2.87;100.00;98160.84;5114605;27;20963;-74
2024/01/14 00:53:51;;;;;;;32.57;17.73;;;;;;;-2.84;100.00;98141.53;5114379;28;20794;-74
2024/01/14 00:56:17;;;;;;;30.63;17.83;;;;;;;-2.89;100.00;98134.13;5114330;28;20428;-74
2024/01/14 00:58:44;;;;;;;35.07;18.67;;;;;;;-2.82;100.00;98127.44;5114162;28;20566;-74
2024/01/14 01:01:10;;;;;;;29.07;16.33;;;;;;;-2.55;100.00;98117.19;5113860;28;20822;-74
2024/01/14 01:03:36;;;;;;;34.10;18.33;;;;;;;-2.78;100.00;98126.22;5114284;28;20794;-74
2024/01/14 01:06:03;;;;;;;32.67;17.53;;;;;;;-2.81;100.00;98115.25;5114094;28;20447;-74
2024/01/14 01:08:29;;;;;;;33.60;17.80;;;;;;;-2.88;100.00;98111.53;5114212;28;20438;-74
2024/01/14 01:10:56;;;;;;;33.57;17.77;;;;;;;-2.73;100.00;98118.81;5114054;28;20451;-74
2024/01/14 01:13:22;;;;;;;37.50;18.67;;;;;;;-2.73;100.00;98113.63;5114185;28;20437;-74
2024/01/14 01:15:49;;;;;;;30.77;17.30;;;;;;;-2.64;100.00;98112.81;5113504;28;20437;-74
2024/01/14 01:18:16;;;;;;;34.57;17.57;;;;;;;-2.63;100.00;98106.63;5113828;28;20447;-74
2024/01/14 01:20:42;;;;;;;32.07;17.47;;;;;;;-2.72;100.00;98107.47;5113855;28;20462;-74
2024/01/14 01:23:08;;;;;;;33.07;17.37;;;;;;;-2.60;100.00;98108.16;5113649;28;20447;-74
2024/01/14 01:25:35;;;;;;;32.80;18.30;;;;;;;-2.57;100.00;98093.06;5113645;28;20443;-74
2024/01/14 01:28:01;;;;;;;32.67;18.47;;;;;;;-2.62;100.00;98091.88;5113975;28;20798;-74
2024/01/14 01:30:28;;;;;;;34.10;18.67;;;;;;;-2.69;100.00;98091.59;5113915;28;20880;-74
2024/01/14 01:32:54;;;;;;;34.47;18.37;;;;;;;-2.54;100.00;98091.97;5113878;28;20423;-74
2024/01/14 01:35:21;;;;;;;32.03;18.27;;;;;;;-2.65;100.00;98082.56;5113893;28;20435;-74
2024/01/14 01:37:47;;;;;;;35.77;19.13;;;;;;;-2.68;100.00;98075.00;5113557;28;20438;-75
2024/01/14 01:40:14;;;;;;;37.30;20.57;;;;;;;-2.65;100.00;98074.75;5113228;28;21012;-74
2024/01/14 01:42:41;;;;;;;38.57;19.40;;;;;;;-2.63;100.00;98075.41;5113602;28;20439;-74
2024/01/14 01:45:09;;;;;;;39.20;20.23;;;;;;;-2.58;100.00;98072.41;5113483;28;20923;-74
2024/01/14 01:47:36;;;;;;;39.93;20.70;;;;;;;-2.55;100.00;98067.75;5113654;28;20516;-74
2024/01/14 01:50:02;;;;;;;36.43;20.43;;;;;;;-2.58;100.00;98067.22;5113419;28;20463;-74
2024/01/14 01:52:29;;;;;;;37.57;19.77;;;;;;;-2.62;100.00;98061.44;5113755;28;20435;-74
2024/01/14 01:54:57;;;;;;;40.17;20.67;;;;;;;-2.65;100.00;98066.94;5113766;28;20526;-74
2024/01/14 01:57:24;;;;;;;37.07;20.47;;;;;;;-2.75;100.00;98065.28;5113369;28;20441;-74
2024/01/14 01:59:51;;;;;;;37.07;20.03;;;;;;;-2.84;100.00;98058.31;5113517;28;20482;-74
2024/01/14 02:02:18;;;;;;;38.03;20.50;;;;;;;-2.77;100.00;98052.41;5113375;28;20956;-75
2024/01/14 02:04:46;;;;;;;38.10;21.17;;;;;;;-2.77;100.00;98049.81;5113692;28;20758;-75
2024/01/14 02:07:13;;;;;;;37.00;20.53;;;;;;;-2.77;100.00;98052.41;5113556;28;20442;-75
2024/01/14 02:09:40;;;;;;;33.00;18.93;;;;;;;-2.76;100.00;98043.63;5113462;28;20455;-75
2024/01/14 02:12:06;;;;;;;37.13;18.20;;;;;;;-2.57;100.00;98038.44;5113543;28;20458;-74
2024/01/14 02:14:34;;;;;;;38.30;20.57;;;;;;;-2.78;100.00;98042.97;5113660;28;20806;-74
2024/01/14 02:17:01;;;;;;;38.10;19.83;;;;;;;-2.82;100.00;98028.59;5113529;28;20440;-74
2024/01/14 02:19:27;;;;;;;37.40;19.93;;;;;;;-2.68;100.00;98028.19;5113331;28;20475;-74
2024/01/14 02:22:00;;;;;;;38.37;20.17;;;;;;;-2.51;100.00;98027.50;5113375;28;20455;-74
2024/01/14 02:24:33;;;;;;;38.27;19.93;;;;;;;-2.55;100.00;98031.31;5113256;28;20899;-74
2024/01/14 02:27:00;;;;;;;41.07;20.43;;;;;;;-2.73;100.00;98025.16;5113220;28;20458;-74
2024/01/14 02:29:28;;;;;;;38.67;20.13;;;;;;;-2.80;100.00;98026.66;5115787;28;20447;-74
2024/01/14 02:31:56;;;;;;;37.80;20.60;;;;;;;-2.68;100.00;98028.19;5116963;28;20926;-74
2024/01/14 02:34:23;;;;;;;37.73;20.83;;;;;;;-2.71;100.00;98028.44;5116866;28;20438;-74
2024/01/14 02:36:50;;;;;;;37.57;20.40;;;;;;;-2.77;100.00;98021.19;5116836;28;20443;-74
2024/01/14 02:39:17;;;;;;;39.97;20.77;;;;;;;-2.71;100.00;98020.63;5117000;28;20489;-74
2024/01/14 02:41:44;;;;;;;39.63;20.43;;;;;;;-2.73;100.00;98012.16;5116765;28;20920;-74
2024/01/14 02:44:11;;;;;;;36.60;19.23;;;;;;;-2.73;100.00;98013.94;5116738;27;20972;-74
2024/01/14 02:46:39;;;;;;;34.13;18.23;;;;;;;-2.70;100.00;98017.09;5116678;28;20438;-74
2024/01/14 02:49:05;;;;;;;35.10;18.87;;;;;;;-2.85;100.00;98013.25;5117043;28;20424;-74
2024/01/14 02:51:31;;;;;;;39.97;20.80;;;;;;;-2.92;100.00;98019.97;5116805;28;20427;-74
2024/01/14 02:53:58;;;;;;;36.77;19.00;;;;;;;-2.83;100.00;98008.75;5116835;28;20442;-74
2024/01/14 02:56:25;;;;;;;38.20;19.37;;;;;;;-2.80;100.00;98016.25;5116843;28;20439;-74
2024/01/14 02:58:51;;;;;;;37.93;18.80;;;;;;;-2.94;100.00;98016.66;5117552;28;20478;-74
2024/01/14 03:01:18;;;;;;;34.27;18.37;;;;;;;-2.97;100.00;98016.13;5116742;28;20431;-74
2024/01/14 03:03:47;;;;;;;36.33;18.93;;;;;;;-2.99;100.00;98013.66;5116282;28;20435;-74
2024/01/14 03:06:17;;;;;;;36.80;19.63;;;;;;;-3.10;100.00;97998.19;5116203;28;20474;-74
2024/01/14 03:08:48;;;;;;;38.57;20.87;;;;;;;-2.86;100.00;98011.59;5116194;28;20841;-74
2024/01/14 03:11:22;;;;;;;37.97;19.07;;;;;;;-2.89;100.00;98014.47;5116257;28;20448;-74
2024/01/14 03:13:50;;;;;;;38.63;19.00;;;;;;;-3.03;100.00;98006.28;5115642;27;20532;-74
2024/01/14 03:16:19;;;;;;;39.17;20.63;;;;;;;-2.92;100.00;98009.56;5115937;28;21005;-74
2024/01/14 03:18:45;;;;;;;33.77;19.23;;;;;;;-3.08;100.00;98004.06;5115928;28;20439;-74
2024/01/14 03:21:19;;;;;;;43.60;21.63;;;;;;;-3.11;100.00;98014.72;5115841;28;20473;-74
2024/01/14 03:23:45;;;;;;;39.57;19.70;;;;;;;-2.85;100.00;98010.66;5116365;28;20521;-74
2024/01/14 03:26:15;;;;;;;43.53;20.30;;;;;;;-2.82;100.00;98014.75;5116275;28;20444;-74
2024/01/14 03:28:49;;;;;;;38.87;19.47;;;;;;;-2.94;100.00;98008.06;5116266;28;20445;-74
2024/01/14 03:31:21;;;;;;;38.37;20.63;;;;;;;-2.96;100.00;98009.97;5115750;28;20459;-74
2024/01/14 03:33:49;;;;;;;42.53;21.27;;;;;;;-2.93;100.00;98014.91;5115570;28;20922;-74
2024/01/14 03:36:21;;;;;;;39.00;20.43;;;;;;;-2.87;100.00;98014.34;5115742;28;20922;-74
2024/01/14 03:38:48;;;;;;;42.20;22.10;;;;;;;-2.94;100.00;98008.88;5116235;28;20424;-74
2024/01/14 03:41:20;;;;;;;41.70;19.83;;;;;;;-2.99;100.00;98000.66;5115388;28;20458;-74
2024/01/14 03:43:49;;;;;;;41.20;18.67;;;;;;;-3.08;100.00;98003.28;5115576;28;20445;-74
2024/01/14 03:46:19;;;;;;;43.90;21.17;;;;;;;-3.17;100.00;98006.69;5115528;28;20442;-74
2024/01/14 03:48:49;;;;;;;44.37;21.10;;;;;;;-3.03;100.00;97994.09;5115378;28;20439;-74
2024/01/14 03:51:22;;;;;;;45.37;21.50;;;;;;;-3.25;100.00;97998.72;5114969;28;20456;-74
2024/01/14 03:53:50;;;;;;;39.87;19.77;;;;;;;-3.10;100.00;97999.97;5115095;28;20917;-74
2024/01/14 03:56:24;;;;;;;53.83;23.57;;;;;;;-3.35;100.00;98000.50;5115299;28;20526;-74
2024/01/14 03:59:00;;;;;;;44.07;22.60;;;;;;;-3.34;100.00;97997.72;5116202;28;20451;-74
2024/01/14 04:01:28;;;;;;;50.80;22.27;;;;;;;-3.26;100.00;97997.88;5114872;28;20435;-74
2024/01/14 04:03:59;;;;;;;44.27;22.40;;;;;;;-3.31;100.00;98007.88;5114951;28;20531;-74
2024/01/14 04:06:27;;;;;;;48.40;22.03;;;;;;;-3.31;100.00;97997.47;5115030;28;20515;-74
2024/01/14 04:08:54;;;;;;;47.80;21.27;;;;;;;-3.31;100.00;98007.88;5114861;28;20790;-74
2024/01/14 04:11:21;;;;;;;47.87;21.53;;;;;;;-3.31;100.00;98010.47;5114871;28;20439;-74
2024/01/14 04:13:47;;;;;;;47.30;21.50;;;;;;;-3.39;100.00;98018.09;5115118;28;20432;-74
2024/01/14 04:16:14;;;;;;;45.37;22.63;;;;;;;-3.34;100.00;98015.94;5115045;28;20431;-74
2024/01/14 04:18:40;;;;;;;48.37;21.63;;;;;;;-3.31;100.00;98012.25;5115021;28;20435;-74
2024/01/14 04:21:06;;;;;;;34.97;17.43;;;;;;;-3.35;100.00;98010.91;5114858;28;20487;-74
2024/01/14 04:23:33;;;;;;;41.43;19.43;;;;;;;-3.41;100.00;98014.84;5114802;28;20446;-74
2024/01/14 04:26:05;;;;;;;39.23;19.60;;;;;;;-3.44;100.00;98015.09;5114948;28;20439;-74
2024/01/14 04:28:32;;;;;;;40.13;19.43;;;;;;;-3.39;100.00;98012.09;5115138;28;20419;-74
2024/01/14 04:30:58;;;;;;;39.53;19.37;;;;;;;-3.31;100.00;98014.84;5114903;28;20451;-74
2024/01/14 04:33:24;;;;;;;40.33;19.27;;;;;;;-3.29;100.00;98023.34;5114845;28;20442;-74
2024/01/14 04:35:51;;;;;;;42.00;20.00;;;;;;;-3.33;100.00;98020.19;5114764;28;20432;-74
2024/01/14 04:38:17;;;;;;;39.73;18.33;;;;;;;-3.32;100.00;98019.22;5114786;28;20433;-74
2024/01/14 04:40:43;;;;;;;35.17;19.20;;;;;;;-3.56;100.00;98017.94;5114501;28;20479;-74
2024/01/14 04:43:11;;;;;;;42.30;19.97;;;;;;;-3.47;100.00;98014.53;5114481;28;20428;-74
2024/01/14 04:45:38;;;;;;;36.67;17.67;;;;;;;-3.49;100.00;98014.69;5114444;28;20471;-74
2024/01/14 04:48:05;;;;;;;36.87;19.47;;;;;;;-3.53;100.00;98015.88;5114403;28;20431;-74
2024/01/14 04:50:31;;;;;;;43.17;20.50;;;;;;;-3.62;100.00;98010.69;5114289;28;20447;-74
2024/01/14 04:52:57;;;;;;;41.10;19.57;;;;;;;-3.56;100.00;98010.97;5113762;28;21000;-74
2024/01/14 04:55:24;;;;;;;40.07;19.53;;;;;;;-3.46;100.00;98016.19;5114057;28;20437;-74
2024/01/14 04:57:50;;;;;;;41.83;19.80;;;;;;;-3.36;100.00;98017.84;5114459;28;20944;-74
2024/01/14 05:00:16;;;;;;;40.17;19.90;;;;;;;-3.42;100.00;98018.41;5114254;28;20487;-74
2024/01/14 05:02:43;;;;;;;43.13;21.93;;;;;;;-3.31;100.00;98023.47;5114456;28;20435;-74
2024/01/14 05:05:09;;;;;;;38.97;20.30;;;;;;;-3.38;100.00;98024.97;5114309;28;20476;-74
2024/01/14 05:07:36;;;;;;;43.70;20.30;;;;;;;-3.37;100.00;98016.22;5113849;28;20438;-74
2024/01/14 05:10:02;;;;;;;38.13;18.20;;;;;;;-3.29;100.00;98021.53;5113842;28;20452;-74
2024/01/14 05:12:28;;;;;;;36.63;17.80;;;;;;;-3.54;100.00;98022.03;5114213;28;20427;-74
2024/01/14 05:14:55;;;;;;;34.97;17.97;;;;;;;-3.62;100.00;98032.28;5114035;28;20427;-74
2024/01/14 05:17:21;;;;;;;38.60;18.03;;;;;;;-3.65;100.00;98027.38;5114115;28;20431;-74
2024/01/14 05:19:48;;;;;;;37.03;18.47;;;;;;;-3.65;100.00;98026.53;5113530;28;20475;-74
2024/01/14 05:22:14;;;;;;;39.10;18.37;;;;;;;-3.80;100.00;98031.25;5113520;28;20976;-74
2024/01/14 05:24:43;;;;;;;38.23;17.53;;;;;;;-3.74;100.00;98027.31;5113654;28;20927;-74
2024/01/14 05:27:11;;;;;;;36.57;18.50;;;;;;;-3.76;100.00;98032.63;5114368;28;20431;-74
2024/01/14 05:29:41;;;;;;;38.20;17.70;;;;;;;-3.72;100.00;98028.00;5114423;28;20447;-74
2024/01/14 05:32:09;;;;;;;38.13;18.40;;;;;;;-3.68;100.00;98022.41;5114371;28;20820;-74
2024/01/14 05:34:35;;;;;;;35.97;18.77;;;;;;;-3.83;100.00;98015.94;5114016;28;20424;-74
2024/01/14 05:37:02;;;;;;;38.03;20.80;;;;;;;-3.76;100.00;98017.06;5113743;28;20439;-74
2024/01/14 05:39:28;;;;;;;40.37;19.00;;;;;;;-3.65;100.00;98014.38;5113635;28;20454;-74
2024/01/14 05:41:55;;;;;;;38.80;19.37;;;;;;;-3.54;100.00;98013.41;5113770;28;20432;-74
2024/01/14 05:44:21;;;;;;;41.03;19.93;;;;;;;-3.52;100.00;98008.94;5113442;28;20431;-74
2024/01/14 05:46:47;;;;;;;41.50;21.13;;;;;;;-3.83;100.00;98010.75;5113990;28;20431;-74
2024/01/14 05:49:14;;;;;;;43.07;21.00;;;;;;;-3.72;100.00;98013.25;5113369;28;20966;-74
2024/01/14 05:51:40;;;;;;;38.37;19.53;;;;;;;-3.63;100.00;98003.81;5113405;28;20940;-74
2024/01/14 05:54:06;;;;;;;46.57;21.80;;;;;;;-3.87;100.00;98009.38;5113779;28;20433;-74
2024/01/14 05:56:33;;;;;;;38.53;18.87;;;;;;;-3.83;100.00;97995.19;5113844;28;20442;-74
2024/01/14 05:59:00;;;;;;;41.97;20.27;;;;;;;-3.73;100.00;97992.59;5113338;28;20432;-74
2024/01/14 06:01:28;;;;;;;44.97;20.93;;;;;;;-3.85;100.00;98002.25;5113636;28;20528;-74
2024/01/14 06:03:55;;;;;;;46.13;20.77;;;;;;;-3.65;100.00;98000.53;5117034;28;20442;-74
2024/01/14 06:06:21;;;;;;;41.40;19.73;;;;;;;-3.78;100.00;97990.41;5117615;28;20438;-74
2024/01/14 06:08:48;;;;;;;41.00;20.57;;;;;;;-3.74;100.00;97988.34;5117482;28;20435;-74
2024/01/14 06:11:14;;;;;;;41.70;20.60;;;;;;;-3.64;100.00;97986.59;5117376;28;20447;-74
2024/01/14 06:13:41;;;;;;;45.67;20.90;;;;;;;-3.70;100.00;97974.97;5117170;28;20428;-74
2024/01/14 06:16:08;;;;;;;44.53;20.27;;;;;;;-3.70;100.00;97987.94;5117150;28;20949;-74
2024/01/14 06:18:34;;;;;;;39.77;20.63;;;;;;;-3.71;100.00;97991.50;5117141;28;20439;-74
2024/01/14 06:21:01;;;;;;;44.07;21.23;;;;;;;-3.62;100.00;97990.72;5117176;28;20489;-74
2024/01/14 06:23:29;;;;;;;41.93;21.03;;;;;;;-3.55;100.00;97986.63;5117188;28;20443;-74
2024/01/14 06:25:56;;;;;;;44.13;19.07;;;;;;;-3.70;100.00;97990.53;5117097;28;20435;-74
2024/01/14 06:28:22;;;;;;;42.80;21.90;;;;;;;-3.65;100.00;97983.19;5117385;28;20431;-74
2024/01/14 06:30:49;;;;;;;39.77;19.93;;;;;;;-3.63;100.00;97986.47;5117111;28;20458;-74
2024/01/14 06:33:15;;;;;;;39.37;20.53;;;;;;;-3.67;100.00;97990.28;5117077;28;20442;-74
2024/01/14 06:35:42;;;;;;;43.77;21.23;;;;;;;-3.60;100.00;97980.19;5116797;28;20526;-74
2024/01/14 06:38:09;;;;;;;39.57;21.13;;;;;;;-3.61;100.00;97974.16;5116981;28;20443;-74
2024/01/14 06:40:36;;;;;;;39.37;20.53;;;;;;;-3.54;100.00;97975.28;5116850;28;20475;-74
2024/01/14 06:43:02;;;;;;;39.33;20.23;;;;;;;-3.56;100.00;97969.41;5116973;28;20434;-74
2024/01/14 06:45:29;;;;;;;38.40;20.20;;;;;;;-3.66;100.00;97965.16;5116628;28;20936;-75
2024/01/14 06:47:55;;;;;;;39.27;18.90;;;;;;;-3.86;100.00;97956.47;5116965;28;20427;-74
2024/01/14 06:50:22;;;;;;;39.60;20.43;;;;;;;-3.79;100.00;97957.56;5116896;28;20458;-74
2024/01/14 06:52:48;;;;;;;39.20;20.00;;;;;;;-3.70;100.00;97951.56;5116719;28;20428;-74
2024/01/14 06:55:15;;;;;;;38.03;18.60;;;;;;;-3.84;100.00;97941.56;5116732;28;20432;-74
2024/01/14 06:57:41;;;;;;;36.67;19.53;;;;;;;-3.80;100.00;97937.75;5116742;28;20438;-74
2024/01/14 07:00:09;;;;;;;36.93;19.20;;;;;;;-3.79;100.00;97925.59;5116553;28;20498;-74
2024/01/14 07:02:35;;;;;;;38.33;18.43;;;;;;;-3.87;100.00;97921.06;5116661;28;20833;-74
2024/01/14 07:05:02;;;;;;;36.43;18.57;;;;;;;-3.87;100.00;97913.28;5116268;28;20440;-74
2024/01/14 07:07:29;;;;;;;38.23;18.90;;;;;;;-3.87;100.00;97912.47;5116356;28;20458;-74
2024/01/14 07:09:56;;;;;;;38.67;19.83;;;;;;;-3.81;100.00;97911.91;5116111;28;20981;-74
2024/01/14 07:12:22;;;;;;;38.90;19.30;;;;;;;-3.81;100.00;97904.97;5116217;28;20447;-74
2024/01/14 07:14:48;;;;;;;37.90;19.77;;;;;;;-3.78;100.00;97903.88;5115170;28;20874;-74
2024/01/14 07:17:15;;;;;;;36.47;19.03;;;;;;;-3.75;100.00;97891.41;5116221;28;20435;-74
2024/01/14 07:19:41;;;;;;;38.43;19.83;;;;;;;-3.69;100.00;97895.28;5114884;28;20452;-74
2024/01/14 07:22:08;;;;;;;37.53;19.37;;;;;;;-3.65;100.00;97889.69;5116071;28;20473;-74
2024/01/14 07:24:34;;;;;;;37.97;18.93;;;;;;;-3.71;100.00;97894.59;5116145;28;20440;-74
2024/01/14 07:27:01;;;;;;;38.40;20.10;;;;;;;-3.70;100.00;97907.44;5116244;28;20463;-75
2024/01/14 07:29:28;;;;;;;36.73;19.03;;;;;;;-3.76;100.00;97891.59;5115743;27;20459;-74
2024/01/14 07:31:55;;;;;;;42.03;19.97;;;;;;;-3.77;100.00;97898.53;5116002;28;20434;-74
2024/01/14 07:34:21;;;;;;;40.13;20.47;;;;;;;-3.72;100.00;97893.75;5115743;28;20915;-74
2024/01/14 07:36:48;;;;;;;42.07;20.07;;;;;;;-3.67;100.00;97894.19;5115956;28;20440;-74
2024/01/14 07:39:16;;;;;;;41.80;19.97;;;;;;;-3.67;100.00;97898.56;5115451;28;20993;-74
2024/01/14 07:41:42;;;;;;;40.70;20.67;;;;;;;-3.64;100.00;97891.31;5115766;28;20475;-74
2024/01/14 07:44:09;;;;;;;41.53;20.67;;;;;;;-3.61;100.00;97887.63;5115507;28;20432;-74
2024/01/14 07:46:35;;;;;;;38.23;19.43;;;;;;;-3.52;100.00;97884.22;5115711;28;20522;-74
2024/01/14 07:49:01;;;;;;;41.90;20.33;;;;;;;-3.54;100.00;97880.91;5115661;28;20423;-74
2024/01/14 07:51:28;;;;;;;45.27;21.20;;;;;;;-3.45;100.00;97882.69;5115628;28;20435;-74
2024/01/14 07:53:54;;;;;;;39.10;21.13;;;;;;;-3.39;100.00;97880.38;5115552;28;20431;-74
2024/01/14 07:56:21;;;;;;;44.27;21.27;;;;;;;-3.33;100.00;97876.41;5115209;28;20427;-74
2024/01/14 07:58:47;;;;;;;43.57;20.40;;;;;;;-3.40;100.00;97886.53;5115486;27;20447;-74
2024/01/14 08:01:13;;;;;;;39.70;19.80;;;;;;;-3.35;100.00;97876.56;5115150;28;20481;-75
2024/01/14 08:03:40;;;;;;;38.13;19.40;;;;;;;-3.25;100.00;97879.16;5115026;28;20431;-74
2024/01/14 08:06:07;;;;;;;40.93;20.53;;;;;;;-3.46;100.00;97871.50;5114799;28;20800;-74
2024/01/14 08:08:34;;;;;;;40.23;19.60;;;;;;;-3.51;100.00;97865.06;5115495;28;20434;-74
2024/01/14 08:11:01;;;;;;;39.40;19.57;;;;;;;-3.35;100.00;97866.16;5115173;28;20462;-74
2024/01/14 08:13:28;;;;;;;39.73;19.23;;;;;;;-3.30;100.00;97870.97;5113876;28;20451;-74
2024/01/14 08:15:54;;;;;;;38.63;19.47;;;;;;;-3.25;100.00;97861.75;5115428;28;20446;-74
2024/01/14 08:18:20;;;;;;;37.27;20.07;;;;;;;-3.45;100.00;97864.50;5114875;28;20464;-74
2024/01/14 08:20:47;;;;;;;41.50;20.80;;;;;;;-3.44;100.00;97864.38;5114974;28;20507;-74
2024/01/14 08:23:14;;;;;;;38.40;19.13;;;;;;;-3.44;100.00;97859.19;5114669;28;20459;-74
2024/01/14 08:25:40;;;;;;;38.23;20.27;;;;;;;-3.46;100.00;97860.28;5114356;28;20424;-75
2024/01/14 08:28:07;;;;;;;40.20;19.53;;;;;;;-3.40;100.00;97859.72;5114771;28;20438;-74
2024/01/14 08:30:33;;;;;;;36.70;19.40;;;;;;;-3.46;100.00;97853.31;5114486;28;20458;-74
2024/01/14 08:33:01;;;;;;;38.97;19.90;;;;;;;-3.30;100.00;97850.97;5114871;28;20440;-75
2024/01/14 08:35:27;;;;;;;37.00;19.77;;;;;;;-3.30;100.00;97845.78;5114798;27;20427;-75
2024/01/14 08:37:53;;;;;;;35.87;19.40;;;;;;;-3.26;100.00;97851.53;5114935;28;20437;-74
2024/01/14 08:40:20;;;;;;;31.73;17.80;;;;;;;-3.35;100.00;97847.97;5114841;28;20491;-74
2024/01/14 08:42:48;;;;;;;35.90;19.83;;;;;;;-3.26;100.00;97848.94;5114541;28;20439;-74
2024/01/14 08:45:16;;;;;;;36.30;19.50;;;;;;;-3.11;100.00;97856.13;5114495;28;20482;-74
2024/01/14 08:47:43;;;;;;;32.23;18.77;;;;;;;-3.16;100.00;97845.34;5114282;28;20432;-74
2024/01/14 08:50:10;;;;;;;35.97;18.97;;;;;;;-3.20;100.00;97846.56;5114500;28;20852;-74
2024/01/14 08:52:37;;;;;;;38.67;19.80;;;;;;;-3.18;100.00;97838.63;5114625;27;20432;-74
2024/01/14 08:55:08;;;;;;;32.57;18.37;;;;;;;-3.12;100.00;97846.69;5114410;28;20443;-74
2024/01/14 08:57:34;;;;;;;34.97;18.93;;;;;;;-3.13;100.00;97841.63;5114407;28;20423;-74
2024/01/14 09:00:01;;;;;;;37.30;19.13;;;;;;;-3.00;100.00;97843.00;5114186;28;20459;-74
2024/01/14 09:02:27;;;;;;;36.63;19.53;;;;;;;-3.03;100.00;97832.06;5114001;28;20481;-74
2024/01/14 09:04:53;;;;;;;35.57;18.90;;;;;;;-2.86;100.00;97837.34;5114351;28;20912;-74
2024/01/14 09:07:20;;;;;;;35.87;20.23;;;;;;;-2.79;100.00;97843.63;5113850;28;20454;-74
2024/01/14 09:09:46;;;;;;;35.30;19.70;;;;;;;-2.68;100.00;97832.22;5114035;28;20452;-74
2024/01/14 09:12:13;;;;;;;34.13;19.63;;;;;;;-2.74;100.00;97828.41;5113949;28;20423;-74
2024/01/14 09:14:39;;;;;;;35.63;19.67;;;;;;;-2.66;100.00;97823.31;5113987;28;20837;-74
2024/01/14 09:17:05;;;;;;;36.43;19.53;;;;;;;-2.41;100.00;97825.25;5114259;28;20435;-75
2024/01/14 09:19:32;;;;;;;34.87;19.83;;;;;;;-2.73;100.00;97822.25;5113615;28;20459;-74
2024/01/14 09:21:58;;;;;;;38.67;21.33;;;;;;;-2.75;100.00;97820.75;5113647;28;20849;-74
2024/01/14 09:24:25;;;;;;;37.93;20.40;;;;;;;-2.73;100.00;97817.06;5113759;28;20803;-74
2024/01/14 09:26:51;;;;;;;35.77;20.10;;;;;;;-2.63;100.00;97820.44;5113849;28;20470;-74
2024/01/14 09:29:18;;;;;;;35.43;19.07;;;;;;;-2.35;100.00;97816.06;5113527;28;20465;-74
2024/01/14 09:31:44;;;;;;;34.63;19.73;;;;;;;-2.65;100.00;97811.97;5113952;28;20431;-74
2024/01/14 09:34:10;;;;;;;39.00;21.17;;;;;;;-2.66;100.00;97814.69;5113887;28;20430;-74
2024/01/14 09:36:38;;;;;;;33.50;19.47;;;;;;;-2.37;100.00;97805.78;5113402;28;20743;-74
2024/01/14 09:39:05;;;;;;;35.93;20.20;;;;;;;-2.39;100.00;97802.50;5120134;28;20435;-74
2024/01/14 09:41:53;;;;;;;38.67;20.97;;;;;;;-2.38;100.00;97816.34;5120714;28;20489;-74
2024/01/14 09:44:20;;;;;;;35.43;20.00;;;;;;;-2.57;100.00;97808.63;5120756;27;20415;-74
2024/01/14 09:46:48;;;;;;;34.07;19.23;;;;;;;-2.40;100.00;97816.50;5120119;27;20802;-74
2024/01/14 09:49:16;;;;;;;33.60;19.97;;;;;;;-2.33;100.00;97801.94;5120377;27;20903;-74
2024/01/14 09:51:43;;;;;;;39.70;20.53;;;;;;;-2.29;100.00;97808.50;5120222;27;20433;-74
2024/01/14 09:54:10;;;;;;;41.17;20.80;;;;;;;-2.15;100.00;97805.41;5120115;27;20938;-74
2024/01/14 09:56:38;;;;;;;34.43;20.00;;;;;;;-2.55;100.00;97804.09;5120526;28;20442;-75
2024/01/14 09:59:07;;;;;;;36.33;20.10;;;;;;;-2.34;100.00;97794.28;5120592;27;20427;-75
2024/01/14 10:01:34;;;;;;;33.90;20.17;;;;;;;-2.25;100.00;97799.41;5120473;27;20544;-75
2024/01/14 10:04:05;;;;;;;36.60;20.43;;;;;;;-2.25;100.00;97791.59;5120292;27;20545;-75
2024/01/14 10:06:32;;;;;;;33.57;19.03;;;;;;;-1.87;100.00;97786.16;5120455;27;20480;-75
2024/01/14 10:08:59;;;;;;;34.73;21.27;;;;;;;-2.01;100.00;97775.41;5120073;27;20447;-75
2024/01/14 10:11:27;;;;;;;35.40;20.53;;;;;;;-1.86;100.00;97776.53;5120177;27;20423;-75
2024/01/14 10:13:53;;;;;;;33.43;19.57;;;;;;;-1.82;100.00;97770.88;5120399;27;20474;-75
2024/01/14 10:16:19;;;;;;;32.60;19.43;;;;;;;-1.88;100.00;97765.47;5120361;28;20799;-75
2024/01/14 10:18:46;;;;;;;34.20;19.40;;;;;;;-1.90;100.00;97770.81;5120117;28;20435;-75
2024/01/14 10:21:12;;;;;;;34.80;19.57;;;;;;;-2.23;100.00;97768.84;5119960;28;20483;-75
2024/01/14 10:23:39;;;;;;;36.77;20.10;;;;;;;-2.32;100.00;97767.13;5120454;28;20530;-75
2024/01/14 10:26:06;;;;;;;38.00;20.17;;;;;;;-2.26;100.00;97763.13;5120203;27;20443;-75
2024/01/14 10:28:36;;;;;;;34.03;18.87;;;;;;;-2.15;100.00;97761.13;5120152;27;20431;-75
2024/01/14 10:31:04;;;;;;;36.33;21.20;;;;;;;-1.92;100.00;97753.69;5120141;27;20829;-75
2024/01/14 10:33:35;;;;;;;38.27;20.03;;;;;;;-1.86;100.00;97746.09;5119841;27;20922;-75
2024/01/14 10:36:06;;;;;;;35.00;20.23;;;;;;;-1.90;100.00;97743.97;5119776;27;20439;-75
2024/01/14 10:38:32;;;;;;;36.30;19.90;;;;;;;-1.74;100.00;97742.31;5120100;27;20789;-75
2024/01/14 10:40:59;;;;;;;33.10;19.97;;;;;;;-1.64;100.00;97743.03;5119912;28;20487;-75
2024/01/14 10:43:26;;;;;;;33.57;20.27;;;;;;;-1.49;100.00;97736.31;5119635;28;20431;-75
2024/01/14 10:45:53;;;;;;;36.40;20.80;;;;;;;-1.36;100.00;97735.91;5119690;27;20922;-75
2024/01/14 10:48:27;;;;;;;34.07;20.43;;;;;;;-1.27;100.00;97712.34;5119689;27;20435;-75
2024/01/14 10:50:55;;;;;;;35.40;20.17;;;;;;;-1.01;100.00;97707.94;5115489;28;20450;-75
2024/01/14 10:53:29;;;;;;;33.47;19.73;;;;;;;-1.03;100.00;97696.81;5116848;27;20435;-75
2024/01/14 10:56:03;;;;;;;35.03;19.93;;;;;;;-0.92;100.00;97693.94;5117848;28;20426;-75
2024/01/14 10:58:36;;;;;;;38.67;20.90;;;;;;;-0.89;100.00;97695.44;5117075;28;20451;-75
2024/01/14 11:01:05;;;;;;;35.00;20.63;;;;;;;-0.76;100.00;97690.59;5116075;28;20238;-75
2024/01/14 11:03:33;;;;;;;30.20;18.90;;;;;;;-0.83;100.00;97684.34;5116417;28;20441;-75
2024/01/14 11:06:00;;;;;;;32.27;20.07;;;;;;;-0.83;100.00;97682.56;5116261;28;20280;-74
2024/01/14 11:08:27;;;;;;;36.30;20.10;;;;;;;-0.99;100.00;97677.28;5116314;28;20207;-74